createdAt,value
2022-08-17T00:00:43.645Z,3.88
2022-08-17T00:03:39.090Z,3.75
2022-08-17T00:06:27.951Z,3.90
2022-08-17T00:09:18.441Z,4.68
2022-08-17T00:12:43.787Z,4.13
2022-08-17T00:15:13.326Z,3.85
2022-08-17T00:17:59.155Z,3.58
2022-08-17T00:20:45.162Z,3.95
2022-08-17T00:23:31.264Z,4.25
2022-08-17T00:26:43.162Z,4.00
2022-08-17T00:29:23.372Z,4.22
2022-08-17T00:33:23.256Z,4.15
2022-08-17T00:35:20.066Z,3.97
2022-08-17T00:38:09.730Z,4.07
2022-08-17T00:40:59.463Z,4.13
2022-08-17T00:43:47.132Z,4.10
2022-08-17T00:46:36.779Z,4.40
2022-08-17T00:49:25.087Z,4.20
2022-08-17T00:52:19.074Z,4.35
2022-08-17T00:55:06.375Z,4.18
2022-08-17T00:57:57.851Z,4.28
2022-08-17T01:00:46.908Z,3.78
2022-08-17T01:03:34.913Z,4.38
2022-08-17T01:06:22.941Z,4.10
2022-08-17T01:09:08.787Z,4.10
2022-08-17T01:11:54.358Z,4.20
2022-08-17T01:14:41.588Z,3.83
2022-08-17T01:17:28.533Z,4.40
2022-08-17T01:20:14.422Z,4.13
2022-08-17T01:23:01.509Z,3.63
2022-08-17T01:25:51.051Z,4.28
2022-08-17T01:28:54.437Z,4.28
2022-08-17T01:31:51.198Z,4.57
2022-08-17T01:34:42.962Z,4.10
2022-08-17T01:37:32.813Z,4.40
2022-08-17T01:40:23.742Z,4.25
2022-08-17T01:43:24.367Z,4.22
2022-08-17T01:46:17.025Z,4.10
2022-08-17T01:49:07.993Z,4.32
2022-08-17T01:51:54.130Z,3.92
2022-08-17T01:54:43.101Z,4.78
2022-08-17T01:57:28.532Z,4.30
2022-08-17T02:00:14.924Z,4.32
2022-08-17T02:03:00.993Z,4.28
2022-08-17T02:05:48.498Z,4.20
2022-08-17T02:08:38.653Z,4.32
2022-08-17T02:11:25.294Z,4.72
2022-08-17T02:14:11.607Z,4.28
2022-08-17T02:16:57.390Z,5.28
2022-08-17T02:19:43.526Z,4.20
2022-08-17T02:22:29.451Z,4.85
2022-08-17T02:25:18.359Z,4.47
2022-08-17T02:28:07.845Z,3.92
2022-08-17T02:31:01.021Z,4.13
2022-08-17T02:34:00.341Z,4.50
2022-08-17T02:36:53.393Z,4.20
2022-08-17T02:39:39.364Z,4.72
2022-08-17T02:42:32.733Z,4.72
2022-08-17T02:45:21.315Z,4.57
2022-08-17T02:48:07.299Z,4.53
2022-08-17T02:50:53.167Z,4.97
2022-08-17T02:53:38.738Z,4.72
2022-08-17T02:56:24.707Z,4.40
2022-08-17T02:59:10.407Z,4.47
2022-08-17T03:01:56.845Z,4.32
2022-08-17T03:04:43.222Z,4.70
2022-08-17T03:07:30.383Z,5.07
2022-08-17T03:10:17.275Z,4.80
2022-08-17T03:13:03.367Z,4.40
2022-08-17T03:15:49.625Z,4.97
2022-08-17T03:18:35.488Z,4.13
2022-08-17T03:21:21.693Z,4.22
2022-08-17T03:24:09.126Z,4.53
2022-08-17T03:26:55.587Z,5.07
2022-08-17T03:29:41.485Z,3.95
2022-08-17T03:32:27.418Z,4.28
2022-08-17T03:35:15.862Z,4.35
2022-08-17T03:38:05.236Z,4.97
2022-08-17T03:40:56.705Z,4.25
2022-08-17T03:43:43.966Z,4.43
2022-08-17T03:46:48.831Z,4.78
2022-08-17T03:49:52.817Z,4.90
2022-08-17T03:52:57.013Z,4.40
2022-08-17T03:56:01.984Z,4.35
2022-08-17T03:58:47.972Z,4.20
2022-08-17T04:01:33.845Z,3.80
2022-08-17T04:04:20.296Z,4.30
2022-08-17T04:07:14.218Z,5.15
2022-08-17T04:10:00.221Z,4.90
2022-08-17T04:12:52.902Z,4.60
2022-08-17T04:15:39.268Z,4.30
2022-08-17T04:18:26.009Z,4.82
2022-08-17T04:21:11.786Z,4.82
2022-08-17T04:23:58.282Z,4.80
2022-08-17T04:26:53.001Z,5.05
2022-08-17T04:29:55.157Z,4.40
2022-08-17T04:33:06.329Z,5.13
2022-08-17T04:36:07.615Z,4.45
2022-08-17T04:38:53.824Z,4.40
2022-08-17T04:41:58.078Z,5.07
2022-08-17T04:44:44.214Z,5.13
2022-08-17T04:47:30.005Z,4.55
2022-08-17T04:50:15.933Z,4.97
2022-08-17T04:53:02.532Z,4.20
2022-08-17T04:55:48.773Z,5.20
2022-08-17T04:58:34.698Z,5.28
2022-08-17T05:01:23.142Z,5.20
2022-08-17T05:04:32.141Z,4.93
2022-08-17T05:07:22.760Z,4.63
2022-08-17T05:10:09.812Z,4.40
2022-08-17T05:13:03.068Z,5.30
2022-08-17T05:15:50.525Z,5.03
2022-08-17T05:18:40.117Z,4.15
2022-08-17T05:21:27.290Z,4.70
2022-08-17T05:24:35.410Z,4.25
2022-08-17T05:27:19.167Z,4.07
2022-08-17T05:30:05.466Z,4.07
2022-08-17T05:33:03.668Z,3.90
2022-08-17T05:35:51.399Z,4.22
2022-08-17T05:38:37.966Z,4.00
2022-08-17T05:41:24.151Z,4.20
2022-08-17T05:44:10.364Z,3.70
2022-08-17T05:46:59.669Z,4.50
2022-08-17T05:49:45.692Z,4.10
2022-08-17T05:52:56.172Z,4.30
2022-08-17T05:55:53.741Z,4.88
2022-08-17T05:59:22.704Z,4.70
2022-08-17T06:02:19.018Z,4.22
2022-08-17T06:05:29.481Z,4.13
2022-08-17T06:08:30.471Z,4.93
2022-08-17T06:11:37.338Z,4.45
2022-08-17T06:15:08.041Z,4.72
2022-08-17T06:17:58.473Z,4.45
2022-08-17T06:21:15.425Z,4.07
2022-08-17T06:24:21.573Z,4.75
2022-08-17T06:27:38.730Z,4.32
2022-08-17T06:30:28.413Z,4.35
2022-08-17T06:33:27.084Z,4.65
2022-08-17T06:36:28.709Z,5.45
2022-08-17T06:39:17.302Z,5.72
2022-08-17T06:42:54.909Z,7.55
2022-08-17T06:45:42.622Z,6.43
2022-08-17T06:48:42.894Z,5.75
2022-08-17T06:51:36.300Z,5.82
2022-08-17T06:57:25.313Z,6.85
2022-08-17T07:00:24.188Z,6.78
2022-08-17T07:03:46.962Z,6.55
2022-08-17T07:07:00.709Z,6.05
2022-08-17T07:12:38.619Z,6.30
2022-08-17T07:15:39.733Z,6.00
2022-08-17T07:18:26.977Z,7.07
2022-08-17T07:21:47.052Z,6.63
2022-08-17T07:24:35.411Z,7.90
2022-08-17T07:27:27.580Z,7.35
2022-08-17T07:30:16.510Z,6.68
2022-08-17T07:33:09.205Z,7.93
2022-08-17T07:35:59.445Z,7.47
2022-08-17T07:38:57.519Z,6.95
2022-08-17T07:41:53.272Z,6.90
2022-08-17T07:44:56.169Z,6.57
2022-08-17T07:48:09.513Z,5.05
2022-08-17T07:50:55.207Z,6.15
2022-08-17T07:53:41.666Z,6.25
2022-08-17T07:56:44.153Z,7.35
2022-08-17T07:59:38.796Z,6.60
2022-08-17T08:02:40.218Z,6.28
2022-08-17T08:05:48.698Z,6.82
2022-08-17T08:08:42.702Z,5.80
2022-08-17T08:11:33.864Z,6.43
2022-08-17T08:14:39.400Z,6.28
2022-08-17T08:17:35.638Z,6.85
2022-08-17T08:20:53.481Z,5.68
2022-08-17T08:23:54.458Z,7.80
2022-08-17T08:26:47.570Z,6.72
2022-08-17T08:32:37.552Z,5.38
2022-08-17T08:35:32.323Z,5.43
2022-08-17T08:38:18.147Z,6.30
2022-08-17T08:41:26.402Z,6.63
2022-08-17T08:44:59.738Z,8.15
2022-08-17T08:48:05.388Z,8.68
2022-08-17T08:51:06.835Z,7.35
2022-08-17T08:54:09.474Z,8.65
2022-08-17T09:00:40.095Z,8.13
2022-08-17T09:03:52.837Z,7.60
2022-08-17T09:10:07.102Z,7.03
2022-08-17T09:13:10.457Z,7.15
2022-08-17T09:16:06.674Z,8.50
2022-08-17T09:19:13.743Z,9.10
2022-08-17T09:22:24.078Z,9.13
2022-08-17T09:25:17.446Z,8.85
2022-08-17T09:28:24.150Z,9.18
2022-08-17T09:31:16.908Z,8.73
2022-08-17T09:34:14.343Z,6.93
2022-08-17T09:37:35.054Z,8.10
2022-08-17T09:40:28.974Z,7.45
2022-08-17T09:43:30.622Z,12.32
2022-08-17T09:46:17.085Z,11.70
2022-08-17T09:49:26.614Z,11.25
2022-08-17T09:52:25.153Z,9.55
2022-08-17T09:55:10.746Z,6.82
2022-08-17T09:58:13.870Z,7.90
2022-08-17T10:01:24.138Z,6.55
2022-08-17T10:04:20.392Z,9.15
2022-08-17T10:07:21.023Z,7.38
2022-08-17T10:10:19.623Z,6.28
2022-08-17T10:13:29.546Z,7.63
2022-08-17T10:16:26.142Z,6.97
2022-08-17T10:19:36.489Z,7.63
2022-08-17T10:22:51.179Z,7.25
2022-08-17T10:26:14.572Z,7.70
2022-08-17T10:29:13.439Z,8.75
2022-08-17T10:32:05.441Z,7.50
2022-08-17T10:35:16.584Z,8.23
2022-08-17T10:38:19.616Z,7.93
2022-08-17T10:41:36.853Z,8.57
2022-08-17T10:45:02.008Z,8.07
2022-08-17T10:48:05.253Z,8.35
2022-08-17T10:50:55.424Z,9.13
2022-08-17T10:53:41.696Z,8.70
2022-08-17T10:56:47.210Z,8.60
2022-08-17T10:59:35.968Z,8.85
2022-08-17T11:02:49.899Z,8.60
2022-08-17T11:05:58.842Z,8.75
2022-08-17T11:08:45.199Z,9.10
2022-08-17T11:11:55.436Z,8.98
2022-08-17T11:15:05.953Z,7.60
2022-08-17T11:17:52.427Z,6.88
2022-08-17T11:20:50.029Z,7.63
2022-08-17T11:23:48.442Z,8.35
2022-08-17T11:26:36.497Z,8.23
2022-08-17T11:29:29.844Z,7.68
2022-08-17T11:32:47.774Z,8.18
2022-08-17T11:35:51.313Z,7.40
2022-08-17T11:39:11.770Z,7.13
2022-08-17T11:42:09.781Z,7.53
2022-08-17T11:45:09.052Z,7.28
2022-08-17T11:48:28.406Z,8.85
2022-08-17T11:51:47.093Z,8.88
2022-08-17T11:54:46.334Z,7.32
2022-08-17T11:57:32.090Z,7.60
2022-08-17T12:00:49.248Z,7.72
2022-08-17T12:03:35.373Z,7.05
2022-08-17T12:06:30.427Z,7.20
2022-08-17T12:09:27.601Z,7.47
2022-08-17T12:12:17.597Z,6.93
2022-08-17T12:15:11.727Z,6.47
2022-08-17T12:17:59.100Z,6.97
2022-08-17T12:20:56.066Z,6.60
2022-08-17T12:23:59.137Z,6.65
2022-08-17T12:26:52.984Z,5.38
2022-08-17T12:29:43.853Z,6.47
2022-08-17T12:32:34.236Z,6.78
2022-08-17T12:35:34.561Z,6.88
2022-08-17T12:38:31.836Z,8.10
2022-08-17T12:41:31.576Z,6.88
2022-08-17T12:44:19.113Z,6.68
2022-08-17T12:47:22.701Z,6.55
2022-08-17T12:50:29.192Z,6.60
2022-08-17T12:53:29.875Z,5.97
2022-08-17T12:56:16.087Z,6.18
2022-08-17T12:59:02.436Z,7.10
2022-08-17T13:01:48.896Z,6.93
2022-08-17T13:04:39.300Z,6.82
2022-08-17T13:07:30.590Z,6.68
2022-08-17T13:10:30.032Z,6.45
2022-08-17T13:13:26.786Z,6.68
2022-08-17T13:16:12.356Z,6.60
2022-08-17T13:19:40.163Z,6.57
2022-08-17T13:22:29.591Z,7.97
2022-08-17T13:25:16.713Z,6.88
2022-08-17T13:28:03.157Z,7.13
2022-08-17T13:30:48.849Z,5.90
2022-08-17T13:33:44.568Z,6.95
2022-08-17T13:36:33.584Z,6.97
2022-08-17T13:39:22.883Z,7.45
2022-08-17T13:42:52.627Z,7.30
2022-08-17T13:45:50.842Z,7.20
2022-08-17T13:48:37.607Z,6.47
2022-08-17T13:51:33.493Z,6.38
2022-08-17T13:54:27.827Z,6.63
2022-08-17T13:57:23.456Z,7.00
2022-08-17T14:00:29.952Z,6.40
2022-08-17T14:03:16.334Z,6.22
2022-08-17T14:06:05.892Z,6.53
2022-08-17T14:08:55.849Z,7.15
2022-08-17T14:11:42.081Z,6.85
2022-08-17T14:14:29.277Z,6.55
2022-08-17T14:17:15.784Z,6.18
2022-08-17T14:20:02.034Z,6.43
2022-08-17T14:22:53.551Z,7.43
2022-08-17T14:25:40.155Z,6.80
2022-08-17T14:28:25.949Z,6.90
2022-08-17T14:31:13.435Z,6.50
2022-08-17T14:33:59.690Z,6.45
2022-08-17T14:36:48.304Z,6.55
2022-08-17T14:39:34.285Z,6.07
2022-08-17T14:42:20.544Z,5.80
2022-08-17T14:45:31.695Z,4.85
2022-08-17T14:48:15.911Z,5.40
2022-08-17T14:51:01.916Z,5.50
2022-08-17T14:53:49.351Z,5.55
2022-08-17T14:56:37.954Z,5.18
2022-08-17T14:59:24.133Z,5.95
2022-08-17T15:02:10.799Z,5.25
2022-08-17T15:05:05.208Z,5.70
2022-08-17T15:07:51.315Z,5.55
2022-08-17T15:10:39.105Z,5.03
2022-08-17T15:13:27.366Z,5.90
2022-08-17T15:16:13.873Z,4.75
2022-08-17T15:19:00.196Z,5.00
2022-08-17T15:21:46.930Z,5.82
2022-08-17T15:24:33.520Z,4.80
2022-08-17T15:27:28.280Z,6.25
2022-08-17T15:30:18.437Z,6.97
2022-08-17T15:33:04.414Z,6.50
2022-08-17T15:35:51.894Z,6.63
2022-08-17T15:38:41.332Z,7.30
2022-08-17T15:41:31.185Z,8.63
2022-08-17T15:44:17.313Z,8.38
2022-08-17T15:47:02.699Z,8.70
2022-08-17T15:49:49.161Z,8.93
2022-08-17T15:52:40.461Z,8.30
2022-08-17T15:55:30.020Z,8.93
2022-08-17T15:58:15.606Z,7.70
2022-08-17T16:01:16.937Z,8.00
2022-08-17T16:04:07.049Z,8.73
2022-08-17T16:06:59.920Z,7.97
2022-08-17T16:09:45.548Z,8.88
2022-08-17T16:12:31.322Z,8.85
2022-08-17T16:15:18.568Z,9.15
2022-08-17T16:18:05.217Z,8.55
2022-08-17T16:20:51.268Z,8.52
2022-08-17T16:23:36.894Z,7.80
2022-08-17T16:26:23.255Z,8.48
2022-08-17T16:29:09.752Z,9.00
2022-08-17T16:31:56.676Z,8.35
2022-08-17T16:34:43.341Z,7.82
2022-08-17T16:37:30.859Z,8.82
2022-08-17T16:40:21.836Z,8.82
2022-08-17T16:43:11.949Z,8.55
2022-08-17T16:45:58.142Z,7.88
2022-08-17T16:48:46.356Z,8.52
2022-08-17T16:51:32.822Z,9.20
2022-08-17T16:54:18.809Z,10.55
2022-08-17T16:57:05.381Z,9.90
2022-08-17T16:59:53.266Z,9.25
2022-08-17T17:02:42.274Z,10.48
2022-08-17T17:05:57.878Z,10.98
2022-08-17T17:08:50.649Z,11.02
2022-08-17T17:11:52.922Z,11.10
2022-08-17T17:14:43.357Z,10.17
2022-08-17T17:17:29.396Z,11.00
2022-08-17T17:20:19.726Z,9.32
2022-08-17T17:23:31.548Z,9.30
2022-08-17T17:26:44.175Z,8.27
2022-08-17T17:29:47.266Z,7.20
2022-08-17T17:32:46.055Z,6.10
2022-08-17T17:35:47.213Z,6.30
2022-08-17T17:38:56.159Z,6.53
2022-08-17T17:41:52.735Z,6.07
2022-08-17T17:44:43.542Z,4.80
2022-08-17T17:47:31.861Z,4.80
2022-08-17T17:50:20.394Z,4.40
2022-08-17T17:53:15.041Z,3.63
2022-08-17T17:56:18.723Z,3.60
2022-08-17T18:00:02.525Z,2.80
2022-08-17T18:03:31.844Z,3.85
2022-08-17T18:06:29.197Z,3.05
2022-08-17T18:09:28.121Z,2.92
2022-08-17T18:12:28.440Z,3.00
2022-08-17T18:15:21.738Z,3.35
2022-08-17T18:18:19.812Z,3.55
2022-08-17T18:21:16.690Z,3.53
2022-08-17T18:24:05.601Z,2.88
2022-08-17T18:26:56.873Z,3.05
2022-08-17T18:29:47.822Z,3.58
2022-08-17T18:32:33.860Z,2.88
2022-08-17T18:35:19.390Z,3.80
2022-08-17T18:38:36.052Z,3.17
2022-08-17T18:41:27.095Z,3.22
2022-08-17T18:44:32.751Z,3.15
2022-08-17T18:47:18.413Z,3.17
2022-08-17T18:50:27.501Z,3.58
2022-08-17T18:53:30.368Z,3.03
2022-08-17T18:56:22.876Z,3.42
2022-08-17T18:59:17.320Z,3.20
2022-08-17T19:02:44.795Z,3.47
2022-08-17T19:05:49.885Z,4.55
2022-08-17T19:08:36.461Z,5.63
2022-08-17T19:11:32.628Z,5.93
2022-08-17T19:14:21.113Z,4.90
2022-08-17T19:17:22.502Z,6.10
2022-08-17T19:20:32.142Z,6.73
2022-08-17T19:23:27.387Z,6.88
2022-08-17T19:26:50.262Z,6.90
2022-08-17T19:29:34.719Z,6.80
2022-08-17T19:32:26.539Z,7.05
2022-08-17T19:35:17.407Z,6.60
2022-08-17T19:38:40.314Z,6.60
2022-08-17T19:42:04.046Z,6.60
2022-08-17T19:45:07.191Z,7.15
2022-08-17T19:48:02.839Z,6.35
2022-08-17T19:51:31.910Z,6.18
2022-08-17T19:54:45.501Z,6.55
2022-08-17T19:57:57.468Z,6.00
2022-08-17T20:00:49.949Z,5.85
2022-08-17T20:03:50.999Z,5.43
2022-08-17T20:06:42.893Z,5.95
2022-08-17T20:09:44.357Z,5.90
2022-08-17T20:12:36.390Z,5.55
2022-08-17T20:15:35.182Z,5.80
2022-08-17T20:18:37.869Z,4.70
2022-08-17T20:21:40.970Z,5.63
2022-08-17T20:24:46.083Z,5.05
2022-08-17T20:27:36.474Z,4.80
2022-08-17T20:30:33.665Z,4.05
2022-08-17T20:33:38.437Z,4.75
2022-08-17T20:36:24.310Z,5.10
2022-08-17T20:39:35.978Z,5.60
2022-08-17T20:42:21.784Z,4.90
2022-08-17T20:45:50.020Z,4.05
2022-08-17T20:48:41.069Z,4.85
2022-08-17T20:51:31.993Z,4.32
2022-08-17T20:54:17.918Z,4.50
2022-08-17T20:57:09.214Z,4.50
2022-08-17T21:00:16.688Z,4.78
2022-08-17T21:03:22.517Z,4.60
2022-08-17T21:06:17.238Z,4.72
2022-08-17T21:09:29.770Z,4.63
2022-08-17T21:12:39.665Z,4.40
2022-08-17T21:15:31.003Z,4.40
2022-08-17T21:18:23.323Z,4.35
2022-08-17T21:21:38.451Z,4.60
2022-08-17T21:24:54.949Z,3.92
2022-08-17T21:27:47.210Z,4.10
2022-08-17T21:30:35.911Z,3.92
2022-08-17T21:33:31.861Z,4.38
2022-08-17T21:36:25.714Z,4.00
2022-08-17T21:39:15.115Z,4.20
2022-08-17T21:42:01.357Z,4.22
2022-08-17T21:44:52.318Z,4.38
2022-08-17T21:47:43.465Z,4.10
2022-08-17T21:50:30.191Z,4.72
2022-08-17T21:53:30.671Z,4.03
2022-08-17T21:56:40.503Z,4.10
2022-08-17T21:59:30.780Z,3.97
2022-08-17T22:02:22.616Z,4.22
2022-08-17T22:05:11.665Z,4.18
2022-08-17T22:08:06.426Z,4.78
2022-08-17T22:11:01.678Z,5.07
2022-08-17T22:13:47.225Z,5.13
2022-08-17T22:16:34.872Z,5.22
2022-08-17T22:19:21.107Z,5.82
2022-08-17T22:22:07.257Z,4.97
2022-08-17T22:24:57.527Z,5.90
2022-08-17T22:28:00.099Z,5.78
2022-08-17T22:31:22.823Z,6.15
2022-08-17T22:34:14.373Z,5.90
2022-08-17T22:37:20.146Z,6.38
2022-08-17T22:40:30.463Z,5.93
2022-08-17T22:43:21.277Z,5.97
2022-08-17T22:46:13.052Z,5.78
2022-08-17T22:48:59.710Z,5.63
2022-08-17T22:51:45.686Z,5.78
2022-08-17T22:54:50.353Z,5.40
2022-08-17T22:57:55.106Z,6.13
2022-08-17T23:00:43.639Z,5.10
2022-08-17T23:03:30.121Z,5.93
2022-08-17T23:06:16.089Z,5.90
2022-08-17T23:09:04.194Z,6.07
2022-08-17T23:11:53.445Z,6.22
2022-08-17T23:14:42.114Z,5.97
2022-08-17T23:17:37.216Z,6.45
2022-08-17T23:20:23.755Z,6.05
2022-08-17T23:23:11.725Z,7.18
2022-08-17T23:25:57.561Z,6.88
2022-08-17T23:28:43.890Z,6.10
2022-08-17T23:31:32.947Z,6.75
2022-08-17T23:34:19.003Z,6.93
2022-08-17T23:37:05.145Z,7.15
2022-08-17T23:39:51.208Z,7.47
2022-08-17T23:42:43.369Z,7.43
2022-08-17T23:45:32.829Z,7.22
2022-08-17T23:48:32.414Z,6.75
2022-08-17T23:51:25.632Z,8.00
2022-08-17T23:54:43.827Z,8.15
2022-08-17T23:57:33.786Z,7.88
